No particular awareness of the weather is required.    There are no Weather-warnings


Meteo18 Weather Cam more information Meteo18 Weather Cam


Thunder radar more information blitzortung!


Rain radar more information rain snow radar


Visit our other weather sites:

Template documentation
and downloads

And another site



Weather Underground History page Text

Daily Summary for October 22, 2017 Units:  Metric    English   Both
« Previous Day
Next Day »
Daily Weekly Monthly Yearly Custom
  High: Low: Average:
Temperature: 12.8 °C 7.6 °C 9.7 °C
Dew Point: 7.6 °C 5.3 °C 6.9 °C
Humidity: 92 % 61 % 83 %
Wind Speed: 27.4 km/h 0.0 km/h 9.8 km/h
Wind Gust: 45.1 km/h - -
Wind:- - WSW
Pressure: 1025.3 hPa 1021.2 hPa -
Precipitation: 0.5 mm    
Historical Graphs
 
 
Tabular Data for October 22, 2017
Time Temperature Dew Point Pressure Wind Wind Speed Wind Gust Humidity Rainfall Rate (Hourly)
00:02 10.2 °C 7.6 °C 1021.2 hPa SW 14.5 km/h 24.1 km/h 84 % 0.0 mm
00:12 10.2 °C 7.6 °C 1021.2 hPa WSW 8.0 km/h 22.5 km/h 84 % 0.0 mm
00:17 10.2 °C 7.6 °C 1021.6 hPa WSW 8.0 km/h 22.5 km/h 84 % 0.0 mm
00:22 10.2 °C 7.6 °C 1021.6 hPa SSW 14.5 km/h 22.5 km/h 84 % 0.0 mm
00:27 10.1 °C 7.5 °C 1021.6 hPa SW 9.7 km/h 22.5 km/h 84 % 0.0 mm
00:32 10.1 °C 7.5 °C 1021.6 hPa SW 9.7 km/h 20.9 km/h 84 % 0.0 mm
00:37 10.0 °C 7.4 °C 1021.6 hPa WSW 14.5 km/h 20.9 km/h 84 % 0.0 mm
00:42 9.9 °C 7.5 °C 1021.6 hPa WSW 19.3 km/h 22.5 km/h 85 % 0.0 mm
00:47 9.9 °C 7.5 °C 1021.6 hPa SSW 4.8 km/h 22.5 km/h 85 % 0.0 mm
00:52 9.9 °C 7.5 °C 1021.6 hPa SW 9.7 km/h 22.5 km/h 85 % 0.0 mm
00:57 9.8 °C 7.4 °C 1021.6 hPa SW 14.5 km/h 22.5 km/h 85 % 0.0 mm
01:02 9.8 °C 7.4 °C 1021.6 hPa SW 9.7 km/h 22.5 km/h 85 % 0.0 mm
01:12 9.6 °C 7.4 °C 1021.6 hPa SW 16.1 km/h 19.3 km/h 86 % 0.0 mm
01:17 9.5 °C 7.3 °C 1021.6 hPa SW 16.1 km/h 20.9 km/h 86 % 0.0 mm
01:22 9.4 °C 7.3 °C 1021.6 hPa WSW 9.7 km/h 20.9 km/h 87 % 0.0 mm
01:32 9.3 °C 7.2 °C 1021.6 hPa South 9.7 km/h 20.9 km/h 87 % 0.0 mm
01:37 9.3 °C 7.4 °C 1021.9 hPa SW 11.3 km/h 20.9 km/h 88 % 0.0 mm
01:42 9.3 °C 7.4 °C 1021.9 hPa SSW 9.7 km/h 20.9 km/h 88 % 0.0 mm
01:47 9.2 °C 7.3 °C 1021.9 hPa WSW 6.4 km/h 19.3 km/h 88 % 0.0 mm
01:52 9.2 °C 7.3 °C 1021.9 hPa SW 12.9 km/h 19.3 km/h 88 % 0.0 mm
02:02 9.1 °C 7.2 °C 1021.9 hPa WSW 16.1 km/h 19.3 km/h 88 % 0.0 mm
02:07 9.1 °C 7.2 °C 1021.9 hPa WSW 4.8 km/h 19.3 km/h 88 % 0.0 mm
02:12 9.0 °C 7.1 °C 1021.9 hPa SW 8.0 km/h 19.3 km/h 88 % 0.0 mm
02:17 8.8 °C 7.1 °C 1021.9 hPa WSW 9.7 km/h 19.3 km/h 89 % 0.0 mm
02:22 8.8 °C 7.1 °C 1021.6 hPa SW 8.0 km/h 17.7 km/h 89 % 0.0 mm
02:32 8.7 °C 7.0 °C 1021.9 hPa SW 9.7 km/h 17.7 km/h 89 % 0.0 mm
02:42 8.7 °C 7.0 °C 1021.9 hPa SW 4.8 km/h 16.1 km/h 89 % 0.0 mm
02:52 8.7 °C 7.0 °C 1021.9 hPa WSW 12.9 km/h 16.1 km/h 89 % 0.0 mm
02:57 8.7 °C 7.0 °C 1021.9 hPa WSW 4.8 km/h 22.5 km/h 89 % 0.0 mm
03:02 8.6 °C 6.9 °C 1021.9 hPa SW 12.9 km/h 22.5 km/h 89 % 0.0 mm
03:12 8.6 °C 6.9 °C 1021.9 hPa SSW 4.8 km/h 20.9 km/h 89 % 0.0 mm
03:17 8.5 °C 6.8 °C 1021.9 hPa WSW 8.0 km/h 20.9 km/h 89 % 0.0 mm
03:22 8.5 °C 6.8 °C 1021.9 hPa SW 6.4 km/h 20.9 km/h 89 % 0.0 mm
03:32 8.4 °C 6.7 °C 1021.9 hPa SW 11.3 km/h 14.5 km/h 89 % 0.0 mm
03:42 8.1 °C 6.6 °C 1021.9 hPa SW 8.0 km/h 12.9 km/h 90 % 0.0 mm
03:52 7.8 °C 6.3 °C 1021.9 hPa SSW 4.8 km/h 11.3 km/h 90 % 0.0 mm
04:02 7.8 °C 6.4 °C 1021.6 hPa SW 4.8 km/h 12.9 km/h 91 % 0.0 mm
04:12 7.8 °C 6.4 °C 1021.6 hPa SSW 4.8 km/h 17.7 km/h 91 % 0.0 mm
04:17 7.7 °C 6.3 °C 1021.6 hPa SW 4.8 km/h 17.7 km/h 91 % 0.0 mm
04:32 7.7 °C 6.3 °C 1021.6 hPa SW 4.8 km/h 17.7 km/h 91 % 0.0 mm
04:37 7.8 °C 6.6 °C 1021.6 hPa SW 12.9 km/h 14.5 km/h 92 % 0.0 mm
04:42 7.9 °C 6.5 °C 1021.6 hPa WSW 8.0 km/h 14.5 km/h 91 % 0.0 mm
04:52 8.0 °C 6.6 °C 1021.6 hPa SW 6.4 km/h 14.5 km/h 91 % 0.0 mm
05:02 8.0 °C 6.6 °C 1021.6 hPa SW 8.0 km/h 12.9 km/h 91 % 0.0 mm
05:07 8.0 °C 6.6 °C 1021.6 hPa SW 12.9 km/h 14.5 km/h 91 % 0.0 mm
05:22 7.9 °C 6.5 °C 1021.6 hPa SW 9.7 km/h 14.5 km/h 91 % 0.0 mm
05:32 7.9 °C 6.5 °C 1021.6 hPa WSW 6.4 km/h 11.3 km/h 91 % 0.0 mm
05:37 7.9 °C 6.5 °C 1021.6 hPa WSW 6.4 km/h 16.1 km/h 91 % 0.0 mm
05:42 7.9 °C 6.5 °C 1021.6 hPa SW 9.7 km/h 16.1 km/h 91 % 0.0 mm
05:47 7.9 °C 6.5 °C 1021.6 hPa SSW 3.2 km/h 17.7 km/h 91 % 0.0 mm
05:52 7.9 °C 6.5 °C 1021.6 hPa SW 11.3 km/h 17.7 km/h 91 % 0.0 mm
05:57 7.9 °C 6.5 °C 1021.6 hPa SW 9.7 km/h 17.7 km/h 91 % 0.0 mm
06:02 7.9 °C 6.5 °C 1021.6 hPa WSW 4.8 km/h 17.7 km/h 91 % 0.0 mm
06:12 7.8 °C 6.4 °C 1021.6 hPa SW 12.9 km/h 16.1 km/h 91 % 0.0 mm
06:17 7.8 °C 6.4 °C 1021.6 hPa SSW 14.5 km/h 16.1 km/h 91 % 0.0 mm
06:22 7.8 °C 6.4 °C 1021.9 hPa WSW 8.0 km/h 16.1 km/h 91 % 0.0 mm
06:32 7.7 °C 6.5 °C 1021.6 hPa SW 4.8 km/h 16.1 km/h 92 % 0.0 mm
06:42 7.7 °C 6.5 °C 1021.6 hPa SW 11.3 km/h 16.1 km/h 92 % 0.0 mm
06:47 7.7 °C 6.5 °C 1021.6 hPa SW 11.3 km/h 17.7 km/h 92 % 0.0 mm
06:52 7.7 °C 6.5 °C 1021.6 hPa SW 11.3 km/h 17.7 km/h 92 % 0.0 mm
07:02 7.8 °C 6.4 °C 1021.6 hPa West 8.0 km/h 19.3 km/h 91 % 0.0 mm
07:12 7.9 °C 6.5 °C 1021.9 hPa WSW 9.7 km/h 19.3 km/h 91 % 0.0 mm
07:17 7.9 °C 6.5 °C 1021.9 hPa SW 12.9 km/h 19.3 km/h 91 % 0.0 mm
07:22 8.0 °C 6.6 °C 1021.9 hPa SW 8.0 km/h 19.3 km/h 91 % 0.0 mm
07:32 8.0 °C 6.6 °C 1021.6 hPa West 9.7 km/h 19.3 km/h 91 % 0.0 mm
07:42 7.9 °C 6.4 °C 1021.9 hPa West 9.7 km/h 19.3 km/h 90 % 0.0 mm
07:47 7.9 °C 6.4 °C 1021.9 hPa SW 9.7 km/h 24.1 km/h 90 % 0.0 mm
07:52 7.9 °C 6.4 °C 1021.9 hPa WSW 4.8 km/h 24.1 km/h 90 % 0.0 mm
08:02 7.8 °C 6.3 °C 1021.9 hPa SW 12.9 km/h 24.1 km/h 90 % 0.0 mm
08:12 7.8 °C 6.3 °C 1021.9 hPa WSW 12.9 km/h 25.7 km/h 90 % 0.0 mm
08:17 7.7 °C 6.2 °C 1021.9 hPa SW 11.3 km/h 25.7 km/h 90 % 0.0 mm
08:22 7.7 °C 6.3 °C 1021.9 hPa WSW 9.7 km/h 25.7 km/h 91 % 0.0 mm
08:32 7.6 °C 6.2 °C 1022.2 hPa WSW 11.3 km/h 20.9 km/h 91 % 0.0 mm
08:42 7.6 °C 6.2 °C 1022.2 hPa West 9.7 km/h 20.9 km/h 91 % 0.0 mm
08:52 7.6 °C 6.2 °C 1022.2 hPa WSW 8.0 km/h 20.9 km/h 91 % 0.0 mm
09:02 7.6 °C 6.2 °C 1022.2 hPa West 14.5 km/h 19.3 km/h 91 % 0.0 mm
09:12 7.7 °C 6.3 °C 1022.6 hPa West 9.7 km/h 19.3 km/h 91 % 0.0 mm
09:17 7.8 °C 6.3 °C 1022.6 hPa West 8.0 km/h 19.3 km/h 90 % 0.0 mm
09:22 7.9 °C 6.4 °C 1022.6 hPa WSW 12.9 km/h 19.3 km/h 90 % 0.0 mm
09:27 8.0 °C 6.5 °C 1022.6 hPa SW 12.9 km/h 19.3 km/h 90 % 0.0 mm
09:32 8.1 °C 6.6 °C 1022.6 hPa WSW 9.7 km/h 19.3 km/h 90 % 0.0 mm
09:42 8.2 °C 6.7 °C 1022.6 hPa SW 11.3 km/h 19.3 km/h 90 % 0.0 mm
09:47 8.3 °C 6.6 °C 1022.6 hPa SW 16.1 km/h 19.3 km/h 89 % 0.0 mm
09:52 8.4 °C 6.7 °C 1022.6 hPa WSW 16.1 km/h 19.3 km/h 89 % 0.0 mm
09:57 8.6 °C 6.7 °C 1022.6 hPa WSW 14.5 km/h 24.1 km/h 88 % 0.0 mm
10:07 8.8 °C 6.8 °C 1022.6 hPa West 8.0 km/h 25.7 km/h 87 % 0.0 mm
10:12 9.0 °C 6.8 °C 1022.6 hPa WSW 9.7 km/h 25.7 km/h 86 % 0.0 mm
10:17 9.1 °C 6.9 °C 1022.6 hPa West 22.5 km/h 29.0 km/h 86 % 0.0 mm
10:22 9.2 °C 7.0 °C 1022.6 hPa West 8.0 km/h 29.0 km/h 86 % 0.0 mm
10:32 9.3 °C 6.9 °C 1022.6 hPa WSW 14.5 km/h 29.0 km/h 85 % 0.0 mm
10:42 9.6 °C 7.0 °C 1022.6 hPa WSW 9.7 km/h 24.1 km/h 84 % 0.0 mm
10:47 9.7 °C 7.1 °C 1022.6 hPa West 19.3 km/h 24.1 km/h 84 % 0.0 mm
10:52 9.7 °C 7.0 °C 1022.6 hPa West 11.3 km/h 24.1 km/h 83 % 0.0 mm
11:02 9.9 °C 7.1 °C 1022.6 hPa WSW 14.5 km/h 27.4 km/h 83 % 0.0 mm
11:12 10.2 °C 7.4 °C 1022.2 hPa WSW 8.0 km/h 27.4 km/h 83 % 0.0 mm
11:17 10.2 °C 7.1 °C 1022.6 hPa WNW 11.3 km/h 24.1 km/h 81 % 0.0 mm
11:22 10.3 °C 7.2 °C 1022.6 hPa WSW 12.9 km/h 24.1 km/h 81 % 0.0 mm
11:32 10.5 °C 7.4 °C 1022.6 hPa WSW 14.5 km/h 25.7 km/h 81 % 0.0 mm
11:37 10.5 °C 7.0 °C 1022.6 hPa WSW 16.1 km/h 25.7 km/h 79 % 0.0 mm
11:42 10.7 °C 7.4 °C 1022.6 hPa West 3.2 km/h 25.7 km/h 80 % 0.0 mm
11:47 10.8 °C 7.3 °C 1022.6 hPa WNW 12.9 km/h 27.4 km/h 79 % 0.0 mm
11:52 10.9 °C 7.2 °C 1022.6 hPa West 9.7 km/h 27.4 km/h 78 % 0.0 mm
11:57 11.0 °C 7.3 °C 1022.6 hPa West 12.9 km/h 25.7 km/h 78 % 0.0 mm
12:07 11.1 °C 7.0 °C 1022.6 hPa WSW 6.4 km/h 25.7 km/h 76 % 0.0 mm
12:12 11.3 °C 7.2 °C 1022.6 hPa West 14.5 km/h 25.7 km/h 76 % 0.0 mm
12:17 11.4 °C 7.3 °C 1022.6 hPa West 14.5 km/h 25.7 km/h 76 % 0.0 mm
12:22 11.4 °C 7.5 °C 1022.6 hPa WSW 11.3 km/h 25.7 km/h 77 % 0.0 mm
12:27 11.3 °C 6.6 °C 1022.6 hPa WSW 17.7 km/h 27.4 km/h 73 % 0.0 mm
12:42 12.0 °C 7.3 °C 1022.6 hPa West 16.1 km/h 25.7 km/h 73 % 0.0 mm
12:52 12.2 °C 7.3 °C 1022.2 hPa SW 24.1 km/h 30.6 km/h 72 % 0.0 mm
12:57 12.0 °C 6.7 °C 1022.2 hPa WNW 17.7 km/h 30.6 km/h 70 % 0.0 mm
13:02 12.2 °C 6.7 °C 1022.2 hPa West 22.5 km/h 30.6 km/h 69 % 0.0 mm
13:12 12.4 °C 6.9 °C 1022.2 hPa West 20.9 km/h 38.6 km/h 69 % 0.0 mm
13:17 12.3 °C 6.3 °C 1022.2 hPa NW 27.4 km/h 38.6 km/h 67 % 0.0 mm
13:22 12.2 °C 6.5 °C 1022.2 hPa WSW 9.7 km/h 38.6 km/h 68 % 0.0 mm
13:32 11.9 °C 6.6 °C 1022.2 hPa West 9.7 km/h 33.8 km/h 70 % 0.0 mm
13:37 11.8 °C 6.5 °C 1022.2 hPa WSW 12.9 km/h 27.4 km/h 70 % 0.0 mm
13:42 11.9 °C 6.4 °C 1022.2 hPa West 8.0 km/h 27.4 km/h 69 % 0.0 mm
13:47 11.9 °C 6.4 °C 1022.2 hPa WNW 16.1 km/h 22.5 km/h 69 % 0.0 mm
13:57 11.7 °C 6.6 °C 1022.2 hPa WSW 9.7 km/h 29.0 km/h 71 % 0.0 mm
14:02 11.7 °C 6.2 °C 1022.2 hPa WNW 9.7 km/h 29.0 km/h 69 % 0.0 mm
14:12 12.2 °C 6.5 °C 1022.2 hPa WSW 14.5 km/h 24.1 km/h 68 % 0.0 mm
14:17 12.3 °C 6.6 °C 1021.9 hPa WNW 9.7 km/h 20.9 km/h 68 % 0.0 mm
14:22 12.3 °C 6.3 °C 1021.9 hPa WNW 6.4 km/h 20.9 km/h 67 % 0.0 mm
14:27 12.7 °C 6.3 °C 1021.9 hPa West 20.9 km/h 25.7 km/h 65 % 0.0 mm
14:32 12.6 °C 5.7 °C 1021.9 hPa SW 25.7 km/h 25.7 km/h 63 % 0.0 mm
14:42 12.6 °C 5.3 °C 1021.9 hPa WSW 12.9 km/h 32.2 km/h 61 % 0.0 mm
14:47 12.7 °C 5.6 °C 1021.9 hPa West 11.3 km/h 33.8 km/h 62 % 0.0 mm
14:52 12.6 °C 5.5 °C 1021.9 hPa West 25.7 km/h 33.8 km/h 62 % 0.0 mm
15:02 12.6 °C 6.0 °C 1021.9 hPa WNW 6.4 km/h 38.6 km/h 64 % 0.0 mm
15:07 12.8 °C 6.2 °C 1021.9 hPa West 14.5 km/h 29.0 km/h 64 % 0.0 mm
15:12 12.6 °C 5.7 °C 1021.9 hPa West 25.7 km/h 29.0 km/h 63 % 0.0 mm
15:17 11.5 °C 6.2 °C 1022.2 hPa West 12.9 km/h 45.1 km/h 70 % 0.0 mm
15:22 11.3 °C 6.4 °C 1021.9 hPa WNW 17.7 km/h 45.1 km/h 72 % 0.0 mm
15:32 11.6 °C 6.1 °C 1021.9 hPa NW 9.7 km/h 40.2 km/h 69 % 0.0 mm
15:37 11.9 °C 6.4 °C 1021.9 hPa WSW 14.5 km/h 25.7 km/h 69 % 0.0 mm
15:42 11.8 °C 6.3 °C 1021.9 hPa West 11.3 km/h 25.7 km/h 69 % 0.0 mm
15:47 11.8 °C 6.5 °C 1021.9 hPa West 8.0 km/h 19.3 km/h 70 % 0.0 mm
15:52 12.1 °C 6.8 °C 1021.9 hPa WNW 8.0 km/h 19.3 km/h 70 % 0.0 mm
15:57 12.2 °C 6.5 °C 1022.2 hPa West 17.7 km/h 19.3 km/h 68 % 0.0 mm
16:02 12.2 °C 6.5 °C 1022.2 hPa WSW 17.7 km/h 19.3 km/h 68 % 0.0 mm
16:07 12.2 °C 6.5 °C 1022.2 hPa West 12.9 km/h 25.7 km/h 68 % 0.0 mm
16:12 12.1 °C 6.4 °C 1022.2 hPa West 11.3 km/h 25.7 km/h 68 % 0.0 mm
16:17 12.1 °C 6.4 °C 1021.9 hPa NW 14.5 km/h 25.7 km/h 68 % 0.0 mm
16:22 12.1 °C 6.4 °C 1021.9 hPa NW 4.8 km/h 25.7 km/h 68 % 0.0 mm
16:32 11.8 °C 6.5 °C 1022.2 hPa West 22.5 km/h 22.5 km/h 70 % 0.0 mm
16:37 10.9 °C 7.2 °C 1022.6 hPa WNW 16.1 km/h 30.6 km/h 78 % 0.0 mm
16:42 10.4 °C 7.1 °C 1022.6 hPa WNW 8.0 km/h 30.6 km/h 80 % 0.3 mm
16:47 10.3 °C 7.2 °C 1022.6 hPa West 3.2 km/h 30.6 km/h 81 % 0.3 mm
16:52 10.2 °C 7.3 °C 1022.9 hPa NW 3.2 km/h 30.6 km/h 82 % 0.3 mm
16:57 10.2 °C 7.1 °C 1022.6 hPa WNW 11.3 km/h 16.1 km/h 81 % 0.3 mm
17:02 10.3 °C 7.0 °C 1022.9 hPa WNW 14.5 km/h 16.1 km/h 80 % 0.3 mm
17:12 10.6 °C 7.1 °C 1022.9 hPa West 16.1 km/h 29.0 km/h 79 % 0.3 mm
17:22 10.5 °C 7.2 °C 1022.6 hPa WSW 8.0 km/h 29.0 km/h 80 % 0.3 mm
17:27 10.3 °C 7.0 °C 1022.9 hPa WNW 8.0 km/h 19.3 km/h 80 % 0.3 mm
17:32 10.3 °C 7.2 °C 1022.9 hPa WNW 8.0 km/h 19.3 km/h 81 % 0.3 mm
17:37 10.2 °C 7.1 °C 1022.9 hPa West 9.7 km/h 14.5 km/h 81 % 0.3 mm
17:42 10.2 °C 7.1 °C 1022.9 hPa WNW 8.0 km/h 14.5 km/h 81 % 0.0 mm
17:47 10.3 °C 7.2 °C 1023.2 hPa West 6.4 km/h 12.9 km/h 81 % 0.0 mm
17:52 10.2 °C 7.3 °C 1022.9 hPa WNW 1.6 km/h 12.9 km/h 82 % 0.3 mm
17:57 10.2 °C 7.3 °C 1023.2 hPa WNW 8.0 km/h 12.9 km/h 82 % 0.3 mm
18:02 10.2 °C 7.3 °C 1023.2 hPa West 4.8 km/h 12.9 km/h 82 % 0.3 mm
18:12 10.2 °C 7.3 °C 1023.2 hPa Calm   12.9 km/h 82 % 0.3 mm
18:17 10.1 °C 7.2 °C 1023.2 hPa WSW 4.8 km/h 12.9 km/h 82 % 0.3 mm
18:22 10.1 °C 7.2 °C 1023.2 hPa WNW 6.4 km/h 11.3 km/h 82 % 0.3 mm
18:27 10.1 °C 7.2 °C 1023.2 hPa West 3.2 km/h 11.3 km/h 82 % 0.3 mm
18:32 10.0 °C 7.1 °C 1023.2 hPa West 3.2 km/h 9.7 km/h 82 % 0.3 mm
18:37 9.9 °C 7.0 °C 1023.6 hPa West 8.0 km/h 9.7 km/h 82 % 0.3 mm
18:42 9.9 °C 7.1 °C 1023.6 hPa WNW 1.6 km/h 12.9 km/h 83 % 0.3 mm
18:47 9.9 °C 7.1 °C 1023.6 hPa WSW 6.4 km/h 11.3 km/h 83 % 0.3 mm
18:52 9.9 °C 7.1 °C 1023.6 hPa West 8.0 km/h 11.3 km/h 83 % 0.0 mm
19:02 9.8 °C 7.1 °C 1023.6 hPa West 6.4 km/h 17.7 km/h 83 % 0.0 mm
19:07 9.8 °C 7.1 °C 1023.9 hPa WSW 4.8 km/h 12.9 km/h 83 % 0.0 mm
19:12 9.8 °C 7.1 °C 1023.9 hPa WSW 4.8 km/h 12.9 km/h 83 % 0.0 mm
19:17 9.8 °C 7.1 °C 1023.9 hPa Calm   11.3 km/h 83 % 0.0 mm
19:22 9.8 °C 7.1 °C 1023.9 hPa WSW 1.6 km/h 11.3 km/h 83 % 0.0 mm
19:32 9.6 °C 7.0 °C 1023.9 hPa SW 1.6 km/h 8.0 km/h 84 % 0.0 mm
19:37 9.6 °C 7.0 °C 1024.3 hPa WSW 3.2 km/h 6.4 km/h 84 % 0.0 mm
19:42 9.6 °C 7.0 °C 1024.3 hPa WSW 3.2 km/h 6.4 km/h 84 % 0.0 mm
19:47 9.5 °C 6.9 °C 1024.3 hPa West 6.4 km/h 11.3 km/h 84 % 0.0 mm
19:52 9.6 °C 6.9 °C 1024.3 hPa WSW 8.0 km/h 11.3 km/h 83 % 0.0 mm
19:57 9.6 °C 6.9 °C 1024.3 hPa WSW 6.4 km/h 12.9 km/h 83 % 0.0 mm
20:02 9.6 °C 6.9 °C 1024.6 hPa West 3.2 km/h 12.9 km/h 83 % 0.0 mm
20:12 9.4 °C 6.7 °C 1024.6 hPa WSW 4.8 km/h 12.9 km/h 83 % 0.0 mm
20:17 9.4 °C 6.7 °C 1024.6 hPa WSW 4.8 km/h 11.3 km/h 83 % 0.0 mm
20:22 9.4 °C 6.7 °C 1024.6 hPa West 4.8 km/h 11.3 km/h 83 % 0.0 mm
20:32 9.3 °C 6.7 °C 1024.6 hPa West 4.8 km/h 11.3 km/h 84 % 0.0 mm
20:42 9.2 °C 6.6 °C 1024.6 hPa WNW 3.2 km/h 12.9 km/h 84 % 0.0 mm
20:47 9.2 °C 6.6 °C 1024.6 hPa SW 6.4 km/h 11.3 km/h 84 % 0.0 mm
20:52 9.1 °C 6.7 °C 1024.6 hPa WNW 6.4 km/h 11.3 km/h 85 % 0.0 mm
21:02 9.2 °C 6.6 °C 1024.6 hPa West 8.0 km/h 12.9 km/h 84 % 0.0 mm
21:07 9.3 °C 6.9 °C 1024.6 hPa West 9.7 km/h 12.9 km/h 85 % 0.0 mm
21:12 9.4 °C 6.8 °C 1024.6 hPa WSW 8.0 km/h 12.9 km/h 84 % 0.0 mm
21:22 9.4 °C 6.8 °C 1024.6 hPa West 9.7 km/h 19.3 km/h 84 % 0.0 mm
21:27 9.4 °C 6.8 °C 1024.9 hPa WSW 11.3 km/h 16.1 km/h 84 % 0.0 mm
21:32 9.3 °C 6.9 °C 1024.9 hPa SW 11.3 km/h 16.1 km/h 85 % 0.0 mm
21:37 9.4 °C 7.0 °C 1024.9 hPa West 6.4 km/h 16.1 km/h 85 % 0.0 mm
21:42 9.3 °C 7.1 °C 1024.9 hPa WSW 16.1 km/h 16.1 km/h 86 % 0.0 mm
21:47 9.3 °C 7.2 °C 1024.9 hPa West 4.8 km/h 16.1 km/h 87 % 0.0 mm
21:52 9.3 °C 7.2 °C 1024.9 hPa West 1.6 km/h 16.1 km/h 87 % 0.0 mm
21:57 9.3 °C 7.1 °C 1024.9 hPa SW 4.8 km/h 16.1 km/h 86 % 0.0 mm
22:02 9.3 °C 7.2 °C 1024.9 hPa SW 6.4 km/h 16.1 km/h 87 % 0.0 mm
22:07 9.3 °C 7.2 °C 1024.9 hPa WSW 11.3 km/h 12.9 km/h 87 % 0.0 mm
22:12 9.3 °C 7.2 °C 1024.9 hPa West 3.2 km/h 12.9 km/h 87 % 0.0 mm
22:17 9.3 °C 7.2 °C 1024.9 hPa WSW 3.2 km/h 12.9 km/h 87 % 0.0 mm
22:22 9.4 °C 7.3 °C 1024.9 hPa WSW 3.2 km/h 12.9 km/h 87 % 0.0 mm
22:32 9.4 °C 7.2 °C 1024.9 hPa WSW 6.4 km/h 11.3 km/h 86 % 0.0 mm
22:37 9.5 °C 7.3 °C 1024.9 hPa WSW 8.0 km/h 11.3 km/h 86 % 0.0 mm
22:42 9.6 °C 7.4 °C 1024.9 hPa WSW 4.8 km/h 11.3 km/h 86 % 0.0 mm
22:47 9.6 °C 7.4 °C 1024.9 hPa WSW 8.0 km/h 12.9 km/h 86 % 0.0 mm
22:52 9.6 °C 7.4 °C 1024.9 hPa West 3.2 km/h 12.9 km/h 86 % 0.0 mm
22:57 9.6 °C 7.4 °C 1024.9 hPa WSW 4.8 km/h 12.9 km/h 86 % 0.0 mm
23:02 9.6 °C 7.4 °C 1024.9 hPa WSW 3.2 km/h 12.9 km/h 86 % 0.0 mm
23:12 9.6 °C 7.4 °C 1024.9 hPa WSW 6.4 km/h 12.9 km/h 86 % 0.0 mm
23:17 9.6 °C 7.4 °C 1024.9 hPa WSW 9.7 km/h 11.3 km/h 86 % 0.0 mm
23:22 9.6 °C 7.4 °C 1024.9 hPa West 6.4 km/h 11.3 km/h 86 % 0.0 mm
23:32 9.7 °C 7.5 °C 1024.9 hPa SW 9.7 km/h 16.1 km/h 86 % 0.0 mm
23:37 9.8 °C 7.4 °C 1024.9 hPa West 9.7 km/h 19.3 km/h 85 % 0.0 mm
23:42 9.8 °C 7.4 °C 1024.9 hPa SW 4.8 km/h 19.3 km/h 85 % 0.0 mm
23:47 9.8 °C 7.4 °C 1024.9 hPa WSW 9.7 km/h 16.1 km/h 85 % 0.0 mm
23:57 9.8 °C 7.4 °C 1025.3 hPa SW 8.0 km/h 17.7 km/h 85 % 0.0 mm
Meteo18
Compliments of Weather Underground - 4 mb

Script developed by  Jim McMurry - jmcmurry@mwt.net Adapted for the template by  Wim van der Kuil - Leuven-Template.eu

You find our weather info also at:

European Weather Network

Weather Underground

Equipment we use:

Weather-station
Davis Vue

Weather-program
Meteohub

Weather-server
Raspberry PI 2 B+

Provider
1 and 1

Davis Vue

Meteohub

Raspberry PI 2 B+

1 and 1